METAR AND TAF INFORMATION
METAR FOR GCXO
ADDS - METARS form results

(0422 UTC 06 June 2020)
Data provider http://aviationweather.gov/metar/data/
 
METAR text: GCXO 060400Z AUTO 29005KT CAVOK 15/14 Q1014
Conditions at: GCXO (TENERIFE/LOS ROD, ES) observed 0400 UTC 06 June 2020
Temperature: 15.0°C (59°F)
Dewpoint: 14.0°C (57°F) [RH = 94%]
Pressure (altimeter): 29.94 inches Hg (1014.0 mb)
Winds: from the WNW (290 degrees) at 6 MPH (5 knots; 2.6 m/s)
Visibility: 6 or more miles (10+ km)
Ceiling: ceiling and visibility are OK
Clouds: unknown
Weather: no significant weather observed at this time

METAR text: GCXO 060330Z AUTO 27006KT CAVOK 15/13 Q1014
Conditions at: GCXO (TENERIFE/LOS ROD, ES) observed 0330 UTC 06 June 2020
Temperature: 15.0°C (59°F)
Dewpoint: 13.0°C (55°F) [RH = 88%]
Pressure (altimeter): 29.94 inches Hg (1014.0 mb)
Winds: from the W (270 degrees) at 7 MPH (6 knots; 3.1 m/s)
Visibility: 6 or more miles (10+ km)
Ceiling: ceiling and visibility are OK
Clouds: unknown
Weather: no significant weather observed at this time

Forecast for: GCXO (TENERIFE/LOS ROD, ES)
Text: TAF GCXO 060200Z 0603/0703 VRB05KT 9999 FEW000 BKN015 TX21/0614Z TN16/0606Z
Forecast period: 0300 to 0900 UTC 06 June 2020
Forecast type: FROM: standard forecast or significant change
Winds: variable direction winds at 6 MPH (5 knots; 2.6 m/s)
Visibility: 6 or more miles 10+ km)
Ceiling: 1500 feet AGL
Clouds: few clouds at 0 feet AGL
broken clouds at 1500 feet AGL
Weather: no significant weather forecast for this period
Text: BECMG 0609/0611 14010KT
Forecast period: 0900 UTC 06 June 2020 to 0300 UTC 07 June 2020
Forecast type: BECOMING: Conditions expected to become as follows by 1100 UTC 06 June 2020
Winds: from the SE (140 degrees) at 12 MPH (10 knots; 5.1 m/s)
Visibility: 6 or more miles 10+ km)
Ceiling: 1500 feet AGL
Clouds: few clouds at 0 feet AGL
broken clouds at 1500 feet AGL
Weather: no significant weather forecast for this period
Text: PROB40
Forecast period: 1000 to 1500 UTC 06 June 2020
Forecast type: TEMPORARY: The following changes expected for less than half the time period
Visibility: 2.80 miles (4.51 km)
Ceiling: 500 feet AGL
Clouds: broken clouds at 500 feet AGL
Weather: RA BCFG  (moderate rain, patches of fog)

 AIRPORT MAP

 RUNWAY INFORMATION
Runway 12 Runway length 11155 ft Runway width 148 ft
Runway elevation 2060 ft Runway displaced threshold 0 ft Runway heading 111
Runway 30 Runway length 11155 ft Runway width 148 ft
Runway elevation 2002 ft Runway displaced threshold 0 ft Runway heading 291

 AIRPORT FREQUENCIES
Type APP Name APP Frequency 119.7 MHZ
Type ATIS Name ATIS Frequency 118.575 MHZ
Type GND Name GND Frequency 121.7 MHZ
Type TWR Name TWR Frequency 118.7 MHZ

 AIRPORT NEAR NAVIGATION AIDS
Type VOR-DME Name Tenerife Norte Frequency 117700 KHZ
Type NDB Name Tenerife Norte Frequency 410 KHZ